sensor_id;sensor_type;location;lat;lon;timestamp;temperature;humidity
24468;DHT22;12634;50.852;5.676;2023-05-07T00:01:43;14.40;99.90
24468;DHT22;12634;50.852;5.676;2023-05-07T00:04:12;14.40;99.90
24468;DHT22;12634;50.852;5.676;2023-05-07T00:06:39;14.40;99.90
24468;DHT22;12634;50.852;5.676;2023-05-07T00:09:06;14.40;99.90
24468;DHT22;12634;50.852;5.676;2023-05-07T00:11:34;14.40;99.90
24468;DHT22;12634;50.852;5.676;2023-05-07T00:14:01;14.40;99.90
24468;DHT22;12634;50.852;5.676;2023-05-07T00:16:28;14.50;99.90
24468;DHT22;12634;50.852;5.676;2023-05-07T00:18:55;14.60;99.90
24468;DHT22;12634;50.852;5.676;2023-05-07T00:21:24;14.60;99.90
24468;DHT22;12634;50.852;5.676;2023-05-07T00:23:52;14.60;99.90
24468;DHT22;12634;50.852;5.676;2023-05-07T00:26:19;14.60;99.90
24468;DHT22;12634;50.852;5.676;2023-05-07T00:28:47;14.60;99.90
24468;DHT22;12634;50.852;5.676;2023-05-07T00:31:14;14.60;99.90
24468;DHT22;12634;50.852;5.676;2023-05-07T00:33:41;14.60;99.90
24468;DHT22;12634;50.852;5.676;2023-05-07T00:36:08;14.60;99.90
24468;DHT22;12634;50.852;5.676;2023-05-07T00:38:37;14.60;99.90
24468;DHT22;12634;50.852;5.676;2023-05-07T00:41:04;14.60;99.90
24468;DHT22;12634;50.852;5.676;2023-05-07T00:43:31;14.50;99.90
24468;DHT22;12634;50.852;5.676;2023-05-07T00:45:58;14.50;99.90
24468;DHT22;12634;50.852;5.676;2023-05-07T00:48:26;14.50;99.90
24468;DHT22;12634;50.852;5.676;2023-05-07T00:50:53;14.40;99.90
24468;DHT22;12634;50.852;5.676;2023-05-07T00:53:21;14.40;99.90
24468;DHT22;12634;50.852;5.676;2023-05-07T00:55:49;14.40;99.90
24468;DHT22;12634;50.852;5.676;2023-05-07T00:58:17;14.40;99.90
24468;DHT22;12634;50.852;5.676;2023-05-07T01:00:44;14.50;99.90
24468;DHT22;12634;50.852;5.676;2023-05-07T01:03:11;14.50;99.90
24468;DHT22;12634;50.852;5.676;2023-05-07T01:05:38;14.40;99.90
24468;DHT22;12634;50.852;5.676;2023-05-07T01:08:06;14.40;99.90
24468;DHT22;12634;50.852;5.676;2023-05-07T01:10:33;14.40;99.90
24468;DHT22;12634;50.852;5.676;2023-05-07T01:13:02;14.30;99.90
24468;DHT22;12634;50.852;5.676;2023-05-07T01:15:29;14.30;99.90
24468;DHT22;12634;50.852;5.676;2023-05-07T01:17:56;14.30;99.90
24468;DHT22;12634;50.852;5.676;2023-05-07T01:20:24;14.30;99.90
24468;DHT22;12634;50.852;5.676;2023-05-07T01:22:53;14.30;99.90
24468;DHT22;12634;50.852;5.676;2023-05-07T01:25:21;14.20;99.90
24468;DHT22;12634;50.852;5.676;2023-05-07T01:27:48;14.20;99.90
24468;DHT22;12634;50.852;5.676;2023-05-07T01:30:16;14.20;99.90
24468;DHT22;12634;50.852;5.676;2023-05-07T01:32:49;14.30;99.90
24468;DHT22;12634;50.852;5.676;2023-05-07T01:35:20;14.10;99.90
24468;DHT22;12634;50.852;5.676;2023-05-07T01:37:48;14.10;99.90
24468;DHT22;12634;50.852;5.676;2023-05-07T01:40:17;14.20;99.90
24468;DHT22;12634;50.852;5.676;2023-05-07T01:42:46;14.10;99.90
24468;DHT22;12634;50.852;5.676;2023-05-07T01:45:13;14.00;99.90
24468;DHT22;12634;50.852;5.676;2023-05-07T01:47:41;14.10;99.90
24468;DHT22;12634;50.852;5.676;2023-05-07T01:50:09;14.10;99.90
24468;DHT22;12634;50.852;5.676;2023-05-07T01:52:37;14.10;99.90
24468;DHT22;12634;50.852;5.676;2023-05-07T01:55:06;14.00;99.90
24468;DHT22;12634;50.852;5.676;2023-05-07T01:57:36;14.00;99.90
24468;DHT22;12634;50.852;5.676;2023-05-07T02:00:04;13.90;99.90
24468;DHT22;12634;50.852;5.676;2023-05-07T02:02:31;13.90;99.90
24468;DHT22;12634;50.852;5.676;2023-05-07T02:04:59;13.80;99.90
24468;DHT22;12634;50.852;5.676;2023-05-07T02:07:27;14.00;99.90
24468;DHT22;12634;50.852;5.676;2023-05-07T02:09:54;13.90;99.90
24468;DHT22;12634;50.852;5.676;2023-05-07T02:12:22;13.90;99.90
24468;DHT22;12634;50.852;5.676;2023-05-07T02:14:51;14.00;99.90
24468;DHT22;12634;50.852;5.676;2023-05-07T02:17:18;14.10;99.90
24468;DHT22;12634;50.852;5.676;2023-05-07T02:19:45;14.10;99.90
24468;DHT22;12634;50.852;5.676;2023-05-07T02:22:12;14.10;99.90
24468;DHT22;12634;50.852;5.676;2023-05-07T02:24:39;14.20;99.90
24468;DHT22;12634;50.852;5.676;2023-05-07T02:27:06;14.30;99.90
24468;DHT22;12634;50.852;5.676;2023-05-07T02:29:33;14.40;99.90
24468;DHT22;12634;50.852;5.676;2023-05-07T02:32:02;14.40;99.90
24468;DHT22;12634;50.852;5.676;2023-05-07T02:34:29;14.50;99.90
24468;DHT22;12634;50.852;5.676;2023-05-07T02:36:57;14.40;99.90
24468;DHT22;12634;50.852;5.676;2023-05-07T02:39:24;14.40;99.90
24468;DHT22;12634;50.852;5.676;2023-05-07T02:41:51;14.40;99.90
24468;DHT22;12634;50.852;5.676;2023-05-07T02:44:18;14.30;99.90
24468;DHT22;12634;50.852;5.676;2023-05-07T02:46:45;14.40;99.90
24468;DHT22;12634;50.852;5.676;2023-05-07T02:49:13;14.30;99.90
24468;DHT22;12634;50.852;5.676;2023-05-07T02:51:41;14.30;99.90
24468;DHT22;12634;50.852;5.676;2023-05-07T02:54:08;14.30;99.90
24468;DHT22;12634;50.852;5.676;2023-05-07T02:56:35;14.20;99.90
24468;DHT22;12634;50.852;5.676;2023-05-07T02:59:02;14.30;99.90
24468;DHT22;12634;50.852;5.676;2023-05-07T03:01:29;14.40;99.90
24468;DHT22;12634;50.852;5.676;2023-05-07T03:03:56;14.40;99.90
24468;DHT22;12634;50.852;5.676;2023-05-07T03:06:25;14.40;99.90
24468;DHT22;12634;50.852;5.676;2023-05-07T03:08:52;14.40;99.90
24468;DHT22;12634;50.852;5.676;2023-05-07T03:11:19;14.30;99.90
24468;DHT22;12634;50.852;5.676;2023-05-07T03:13:46;14.30;99.90
24468;DHT22;12634;50.852;5.676;2023-05-07T03:16:15;14.30;99.90
24468;DHT22;12634;50.852;5.676;2023-05-07T03:18:42;14.30;99.90
24468;DHT22;12634;50.852;5.676;2023-05-07T03:21:10;14.20;99.90
24468;DHT22;12634;50.852;5.676;2023-05-07T03:23:39;14.30;99.90
24468;DHT22;12634;50.852;5.676;2023-05-07T03:26:06;14.30;99.90
24468;DHT22;12634;50.852;5.676;2023-05-07T03:28:33;14.20;99.90
24468;DHT22;12634;50.852;5.676;2023-05-07T03:31:00;14.30;99.90
24468;DHT22;12634;50.852;5.676;2023-05-07T03:33:27;14.30;99.90
24468;DHT22;12634;50.852;5.676;2023-05-07T03:35:55;14.20;99.90
24468;DHT22;12634;50.852;5.676;2023-05-07T03:38:22;14.20;99.90
24468;DHT22;12634;50.852;5.676;2023-05-07T03:40:50;14.20;99.90
24468;DHT22;12634;50.852;5.676;2023-05-07T03:43:17;14.20;99.90
24468;DHT22;12634;50.852;5.676;2023-05-07T03:45:44;14.30;99.90
24468;DHT22;12634;50.852;5.676;2023-05-07T03:48:11;14.50;99.90
24468;DHT22;12634;50.852;5.676;2023-05-07T03:50:39;14.50;99.90
24468;DHT22;12634;50.852;5.676;2023-05-07T03:53:06;14.60;99.90
24468;DHT22;12634;50.852;5.676;2023-05-07T03:55:33;14.60;99.90
24468;DHT22;12634;50.852;5.676;2023-05-07T03:58:02;14.70;99.90
24468;DHT22;12634;50.852;5.676;2023-05-07T04:00:29;14.70;99.90
24468;DHT22;12634;50.852;5.676;2023-05-07T04:02:59;14.70;99.90
24468;DHT22;12634;50.852;5.676;2023-05-07T04:05:26;14.80;99.90
24468;DHT22;12634;50.852;5.676;2023-05-07T04:07:53;14.80;99.90
24468;DHT22;12634;50.852;5.676;2023-05-07T04:10:20;14.80;99.90
24468;DHT22;12634;50.852;5.676;2023-05-07T04:12:48;14.70;99.90
24468;DHT22;12634;50.852;5.676;2023-05-07T04:15:17;14.70;99.90
24468;DHT22;12634;50.852;5.676;2023-05-07T04:17:44;14.70;99.90
24468;DHT22;12634;50.852;5.676;2023-05-07T04:20:15;14.70;99.90
24468;DHT22;12634;50.852;5.676;2023-05-07T04:22:43;14.70;99.90
24468;DHT22;12634;50.852;5.676;2023-05-07T04:25:10;14.70;99.90
24468;DHT22;12634;50.852;5.676;2023-05-07T04:27:37;14.70;99.90
24468;DHT22;12634;50.852;5.676;2023-05-07T04:30:06;14.70;99.90
24468;DHT22;12634;50.852;5.676;2023-05-07T04:32:34;14.80;99.90
24468;DHT22;12634;50.852;5.676;2023-05-07T04:35:02;14.80;99.90
24468;DHT22;12634;50.852;5.676;2023-05-07T04:37:29;14.90;99.90
24468;DHT22;12634;50.852;5.676;2023-05-07T04:39:58;14.90;99.90
24468;DHT22;12634;50.852;5.676;2023-05-07T04:42:26;15.00;99.90
24468;DHT22;12634;50.852;5.676;2023-05-07T04:44:53;15.00;99.90
24468;DHT22;12634;50.852;5.676;2023-05-07T04:47:20;15.10;99.90
24468;DHT22;12634;50.852;5.676;2023-05-07T04:49:49;15.10;99.90
24468;DHT22;12634;50.852;5.676;2023-05-07T04:52:16;15.20;99.90
24468;DHT22;12634;50.852;5.676;2023-05-07T04:54:43;15.20;99.90
24468;DHT22;12634;50.852;5.676;2023-05-07T04:57:10;15.30;99.90
24468;DHT22;12634;50.852;5.676;2023-05-07T04:59:37;15.40;99.90
24468;DHT22;12634;50.852;5.676;2023-05-07T05:02:04;15.40;99.90
24468;DHT22;12634;50.852;5.676;2023-05-07T05:04:31;15.40;99.90
24468;DHT22;12634;50.852;5.676;2023-05-07T05:07:00;15.50;99.90
24468;DHT22;12634;50.852;5.676;2023-05-07T05:09:29;15.60;99.90
24468;DHT22;12634;50.852;5.676;2023-05-07T05:11:56;15.70;99.90
24468;DHT22;12634;50.852;5.676;2023-05-07T05:14:23;15.70;99.90
24468;DHT22;12634;50.852;5.676;2023-05-07T05:16:50;15.70;99.90
24468;DHT22;12634;50.852;5.676;2023-05-07T05:19:17;15.70;99.90
24468;DHT22;12634;50.852;5.676;2023-05-07T05:21:44;15.80;99.90
24468;DHT22;12634;50.852;5.676;2023-05-07T05:24:13;16.00;99.90
24468;DHT22;12634;50.852;5.676;2023-05-07T05:26:40;16.10;99.90
24468;DHT22;12634;50.852;5.676;2023-05-07T05:29:08;16.30;99.90
24468;DHT22;12634;50.852;5.676;2023-05-07T05:31:35;16.30;99.90
24468;DHT22;12634;50.852;5.676;2023-05-07T05:34:02;16.30;99.90
24468;DHT22;12634;50.852;5.676;2023-05-07T05:36:29;16.20;99.90
24468;DHT22;12634;50.852;5.676;2023-05-07T05:38:57;16.20;99.90
24468;DHT22;12634;50.852;5.676;2023-05-07T05:41:26;16.20;99.90
24468;DHT22;12634;50.852;5.676;2023-05-07T05:43:53;16.20;99.90
24468;DHT22;12634;50.852;5.676;2023-05-07T05:46:20;16.20;99.90
24468;DHT22;12634;50.852;5.676;2023-05-07T05:48:47;16.10;99.90
24468;DHT22;12634;50.852;5.676;2023-05-07T05:51:14;16.20;99.90
24468;DHT22;12634;50.852;5.676;2023-05-07T05:53:41;16.10;99.90
24468;DHT22;12634;50.852;5.676;2023-05-07T05:56:08;16.30;99.90
24468;DHT22;12634;50.852;5.676;2023-05-07T05:58:37;16.20;99.90
24468;DHT22;12634;50.852;5.676;2023-05-07T06:01:04;16.30;99.90
24468;DHT22;12634;50.852;5.676;2023-05-07T06:03:31;16.30;99.90
24468;DHT22;12634;50.852;5.676;2023-05-07T06:05:59;16.30;99.90
24468;DHT22;12634;50.852;5.676;2023-05-07T06:08:29;16.60;99.90
24468;DHT22;12634;50.852;5.676;2023-05-07T06:10:57;16.70;99.90
24468;DHT22;12634;50.852;5.676;2023-05-07T06:13:24;16.80;99.90
24468;DHT22;12634;50.852;5.676;2023-05-07T06:15:53;16.90;99.90
24468;DHT22;12634;50.852;5.676;2023-05-07T06:18:20;16.70;99.90
24468;DHT22;12634;50.852;5.676;2023-05-07T06:20:47;16.90;99.90
24468;DHT22;12634;50.852;5.676;2023-05-07T06:23:14;16.90;99.90
24468;DHT22;12634;50.852;5.676;2023-05-07T06:25:41;16.80;99.90
24468;DHT22;12634;50.852;5.676;2023-05-07T06:28:09;17.00;99.90
24468;DHT22;12634;50.852;5.676;2023-05-07T06:30:37;17.20;99.90
24468;DHT22;12634;50.852;5.676;2023-05-07T06:33:05;17.50;99.90
24468;DHT22;12634;50.852;5.676;2023-05-07T06:35:32;17.80;99.90
24468;DHT22;12634;50.852;5.676;2023-05-07T06:38:00;18.10;99.90
24468;DHT22;12634;50.852;5.676;2023-05-07T06:40:27;18.20;99.90
24468;DHT22;12634;50.852;5.676;2023-05-07T06:42:54;18.20;99.90
24468;DHT22;12634;50.852;5.676;2023-05-07T06:45:21;18.40;99.90
24468;DHT22;12634;50.852;5.676;2023-05-07T06:47:49;19.00;99.90
24468;DHT22;12634;50.852;5.676;2023-05-07T06:50:18;19.40;99.90
24468;DHT22;12634;50.852;5.676;2023-05-07T06:52:45;19.80;99.90
24468;DHT22;12634;50.852;5.676;2023-05-07T06:55:12;20.40;99.90
24468;DHT22;12634;50.852;5.676;2023-05-07T06:57:39;20.80;99.90
24468;DHT22;12634;50.852;5.676;2023-05-07T07:00:07;21.00;99.90
24468;DHT22;12634;50.852;5.676;2023-05-07T07:02:36;21.40;99.90
24468;DHT22;12634;50.852;5.676;2023-05-07T07:05:03;21.10;99.90
24468;DHT22;12634;50.852;5.676;2023-05-07T07:07:32;21.00;99.90
24468;DHT22;12634;50.852;5.676;2023-05-07T07:09:59;21.00;99.90
24468;DHT22;12634;50.852;5.676;2023-05-07T07:12:26;20.80;99.90
24468;DHT22;12634;50.852;5.676;2023-05-07T07:14:54;20.90;99.90
24468;DHT22;12634;50.852;5.676;2023-05-07T07:17:21;20.30;99.90
24468;DHT22;12634;50.852;5.676;2023-05-07T07:19:48;20.40;99.90
24468;DHT22;12634;50.852;5.676;2023-05-07T07:22:16;20.60;99.90
24468;DHT22;12634;50.852;5.676;2023-05-07T07:24:44;20.60;99.90
24468;DHT22;12634;50.852;5.676;2023-05-07T07:27:12;20.80;99.90
24468;DHT22;12634;50.852;5.676;2023-05-07T07:29:39;21.50;99.90
24468;DHT22;12634;50.852;5.676;2023-05-07T07:32:07;22.70;99.90
24468;DHT22;12634;50.852;5.676;2023-05-07T07:34:35;22.90;99.90
24468;DHT22;12634;50.852;5.676;2023-05-07T07:37:02;22.40;99.90
24468;DHT22;12634;50.852;5.676;2023-05-07T07:39:31;23.60;99.90
24468;DHT22;12634;50.852;5.676;2023-05-07T07:42:00;23.60;99.90
24468;DHT22;12634;50.852;5.676;2023-05-07T07:44:28;23.30;99.90
24468;DHT22;12634;50.852;5.676;2023-05-07T07:46:55;23.00;99.90
24468;DHT22;12634;50.852;5.676;2023-05-07T07:49:22;22.50;99.90
24468;DHT22;12634;50.852;5.676;2023-05-07T07:51:49;23.10;99.90
24468;DHT22;12634;50.852;5.676;2023-05-07T07:54:16;23.80;99.90
24468;DHT22;12634;50.852;5.676;2023-05-07T07:56:43;23.40;99.90
24468;DHT22;12634;50.852;5.676;2023-05-07T07:59:12;23.40;99.90
24468;DHT22;12634;50.852;5.676;2023-05-07T08:01:43;23.60;99.90
24468;DHT22;12634;50.852;5.676;2023-05-07T08:04:10;23.90;99.90
24468;DHT22;12634;50.852;5.676;2023-05-07T08:06:37;23.40;99.90
24468;DHT22;12634;50.852;5.676;2023-05-07T08:09:04;23.40;99.90
24468;DHT22;12634;50.852;5.676;2023-05-07T08:11:31;24.00;99.90
24468;DHT22;12634;50.852;5.676;2023-05-07T08:13:58;23.60;99.90
24468;DHT22;12634;50.852;5.676;2023-05-07T08:16:27;23.80;99.90
24468;DHT22;12634;50.852;5.676;2023-05-07T08:18:54;24.10;99.90
24468;DHT22;12634;50.852;5.676;2023-05-07T08:21:21;24.10;99.90
24468;DHT22;12634;50.852;5.676;2023-05-07T08:23:48;23.90;99.90
24468;DHT22;12634;50.852;5.676;2023-05-07T08:26:15;24.30;99.90
24468;DHT22;12634;50.852;5.676;2023-05-07T08:28:43;24.70;99.90
24468;DHT22;12634;50.852;5.676;2023-05-07T08:31:10;25.20;99.90
24468;DHT22;12634;50.852;5.676;2023-05-07T08:33:38;24.60;99.90
24468;DHT22;12634;50.852;5.676;2023-05-07T08:36:06;24.90;99.90
24468;DHT22;12634;50.852;5.676;2023-05-07T08:38:33;26.60;99.90
24468;DHT22;12634;50.852;5.676;2023-05-07T08:41:00;26.40;99.90
24468;DHT22;12634;50.852;5.676;2023-05-07T08:43:27;26.10;99.90
24468;DHT22;12634;50.852;5.676;2023-05-07T08:45:55;25.90;99.90
24468;DHT22;12634;50.852;5.676;2023-05-07T08:48:25;26.10;99.90
24468;DHT22;12634;50.852;5.676;2023-05-07T08:50:55;26.70;99.90
24468;DHT22;12634;50.852;5.676;2023-05-07T08:53:22;27.10;99.90
24468;DHT22;12634;50.852;5.676;2023-05-07T08:55:49;27.60;99.90
24468;DHT22;12634;50.852;5.676;2023-05-07T08:58:17;27.50;99.90
24468;DHT22;12634;50.852;5.676;2023-05-07T09:00:44;27.50;99.90
24468;DHT22;12634;50.852;5.676;2023-05-07T09:03:11;27.60;99.90
24468;DHT22;12634;50.852;5.676;2023-05-07T09:05:39;27.30;99.90
24468;DHT22;12634;50.852;5.676;2023-05-07T09:08:08;27.30;99.90
24468;DHT22;12634;50.852;5.676;2023-05-07T09:10:35;27.60;99.90
24468;DHT22;12634;50.852;5.676;2023-05-07T09:13:03;27.60;99.90
24468;DHT22;12634;50.852;5.676;2023-05-07T09:15:30;27.10;99.90
24468;DHT22;12634;50.852;5.676;2023-05-07T09:17:59;26.20;99.90
24468;DHT22;12634;50.852;5.676;2023-05-07T09:20:30;25.40;99.90
24468;DHT22;12634;50.852;5.676;2023-05-07T09:22:57;24.70;99.90
24468;DHT22;12634;50.852;5.676;2023-05-07T09:25:32;24.70;99.90
24468;DHT22;12634;50.852;5.676;2023-05-07T09:28:01;25.10;99.90
24468;DHT22;12634;50.852;5.676;2023-05-07T09:30:29;24.70;99.90
24468;DHT22;12634;50.852;5.676;2023-05-07T09:32:57;24.10;99.90
24468;DHT22;12634;50.852;5.676;2023-05-07T09:35:25;24.10;99.90
24468;DHT22;12634;50.852;5.676;2023-05-07T09:37:53;23.80;99.90
24468;DHT22;12634;50.852;5.676;2023-05-07T09:40:21;23.50;99.90
24468;DHT22;12634;50.852;5.676;2023-05-07T09:42:50;23.20;99.90
24468;DHT22;12634;50.852;5.676;2023-05-07T09:45:22;23.30;99.90
24468;DHT22;12634;50.852;5.676;2023-05-07T09:47:53;23.00;99.90
24468;DHT22;12634;50.852;5.676;2023-05-07T09:50:26;23.00;99.90
24468;DHT22;12634;50.852;5.676;2023-05-07T09:52:54;22.70;99.90
24468;DHT22;12634;50.852;5.676;2023-05-07T09:55:22;23.00;99.90
24468;DHT22;12634;50.852;5.676;2023-05-07T09:57:52;22.80;99.90
24468;DHT22;12634;50.852;5.676;2023-05-07T10:00:20;22.60;99.90
24468;DHT22;12634;50.852;5.676;2023-05-07T10:02:48;22.60;99.90
24468;DHT22;12634;50.852;5.676;2023-05-07T10:05:18;22.80;99.90
24468;DHT22;12634;50.852;5.676;2023-05-07T10:07:46;22.60;99.90
24468;DHT22;12634;50.852;5.676;2023-05-07T10:10:14;22.80;99.90
24468;DHT22;12634;50.852;5.676;2023-05-07T10:12:41;23.10;99.90
24468;DHT22;12634;50.852;5.676;2023-05-07T10:15:11;23.30;99.90
24468;DHT22;12634;50.852;5.676;2023-05-07T10:17:40;23.50;99.90
24468;DHT22;12634;50.852;5.676;2023-05-07T10:20:08;22.90;99.90
24468;DHT22;12634;50.852;5.676;2023-05-07T10:22:38;22.50;99.90
24468;DHT22;12634;50.852;5.676;2023-05-07T10:25:09;22.30;99.90
24468;DHT22;12634;50.852;5.676;2023-05-07T10:27:41;22.10;99.90
24468;DHT22;12634;50.852;5.676;2023-05-07T10:30:19;22.00;99.90
24468;DHT22;12634;50.852;5.676;2023-05-07T10:32:54;22.20;99.90
24468;DHT22;12634;50.852;5.676;2023-05-07T10:35:24;22.20;99.90
24468;DHT22;12634;50.852;5.676;2023-05-07T10:37:52;22.20;99.90
24468;DHT22;12634;50.852;5.676;2023-05-07T10:40:21;22.00;99.90
24468;DHT22;12634;50.852;5.676;2023-05-07T10:42:55;21.90;99.90
24468;DHT22;12634;50.852;5.676;2023-05-07T10:45:25;21.80;99.90
24468;DHT22;12634;50.852;5.676;2023-05-07T10:48:09;21.40;99.90
24468;DHT22;12634;50.852;5.676;2023-05-07T10:50:36;21.30;99.90
24468;DHT22;12634;50.852;5.676;2023-05-07T10:53:24;21.10;99.90
24468;DHT22;12634;50.852;5.676;2023-05-07T10:58:50;20.60;99.90
24468;DHT22;12634;50.852;5.676;2023-05-07T11:01:52;20.50;99.90
24468;DHT22;12634;50.852;5.676;2023-05-07T11:04:19;20.70;99.90
24468;DHT22;12634;50.852;5.676;2023-05-07T11:07:21;20.90;99.90
24468;DHT22;12634;50.852;5.676;2023-05-07T11:10:01;20.80;99.90
24468;DHT22;12634;50.852;5.676;2023-05-07T11:12:54;20.50;99.90
24468;DHT22;12634;50.852;5.676;2023-05-07T11:15:36;20.60;99.90
24468;DHT22;12634;50.852;5.676;2023-05-07T11:18:05;20.80;99.90
24468;DHT22;12634;50.852;5.676;2023-05-07T11:20:53;20.60;99.90
24468;DHT22;12634;50.852;5.676;2023-05-07T11:23:57;20.80;99.90
24468;DHT22;12634;50.852;5.676;2023-05-07T11:26:26;20.90;99.90
24468;DHT22;12634;50.852;5.676;2023-05-07T11:28:54;20.90;99.90
24468;DHT22;12634;50.852;5.676;2023-05-07T11:31:24;20.70;99.90
24468;DHT22;12634;50.852;5.676;2023-05-07T11:33:53;20.60;99.90
24468;DHT22;12634;50.852;5.676;2023-05-07T11:36:23;20.70;99.90
24468;DHT22;12634;50.852;5.676;2023-05-07T11:38:50;20.70;99.90
24468;DHT22;12634;50.852;5.676;2023-05-07T11:41:17;20.70;99.90
24468;DHT22;12634;50.852;5.676;2023-05-07T11:43:56;20.60;99.90
24468;DHT22;12634;50.852;5.676;2023-05-07T11:46:24;20.90;99.90
24468;DHT22;12634;50.852;5.676;2023-05-07T11:48:54;20.70;99.90
24468;DHT22;12634;50.852;5.676;2023-05-07T11:51:22;20.60;99.90
24468;DHT22;12634;50.852;5.676;2023-05-07T11:53:50;20.60;99.90
24468;DHT22;12634;50.852;5.676;2023-05-07T11:56:18;20.70;99.90
24468;DHT22;12634;50.852;5.676;2023-05-07T11:58:46;20.60;99.90
24468;DHT22;12634;50.852;5.676;2023-05-07T12:01:14;20.50;99.90
24468;DHT22;12634;50.852;5.676;2023-05-07T12:03:43;20.20;99.90
24468;DHT22;12634;50.852;5.676;2023-05-07T12:06:14;20.10;99.90
24468;DHT22;12634;50.852;5.676;2023-05-07T12:08:42;20.00;99.90
24468;DHT22;12634;50.852;5.676;2023-05-07T12:11:12;20.20;99.90
24468;DHT22;12634;50.852;5.676;2023-05-07T12:13:41;20.50;99.90
24468;DHT22;12634;50.852;5.676;2023-05-07T12:16:08;20.60;99.90
24468;DHT22;12634;50.852;5.676;2023-05-07T12:18:36;20.30;99.90
24468;DHT22;12634;50.852;5.676;2023-05-07T12:21:05;20.50;99.90
24468;DHT22;12634;50.852;5.676;2023-05-07T12:23:34;20.60;99.90
24468;DHT22;12634;50.852;5.676;2023-05-07T12:26:02;20.60;99.90
24468;DHT22;12634;50.852;5.676;2023-05-07T12:28:30;20.40;99.90
24468;DHT22;12634;50.852;5.676;2023-05-07T12:30:58;20.60;99.90
24468;DHT22;12634;50.852;5.676;2023-05-07T12:33:26;20.60;99.90
24468;DHT22;12634;50.852;5.676;2023-05-07T12:35:55;20.90;99.90
24468;DHT22;12634;50.852;5.676;2023-05-07T12:38:22;21.20;99.90
24468;DHT22;12634;50.852;5.676;2023-05-07T12:40:54;21.20;99.90
24468;DHT22;12634;50.852;5.676;2023-05-07T12:43:23;20.90;99.90
24468;DHT22;12634;50.852;5.676;2023-05-07T12:45:53;20.60;99.90
24468;DHT22;12634;50.852;5.676;2023-05-07T12:48:21;20.80;99.90
24468;DHT22;12634;50.852;5.676;2023-05-07T12:50:49;20.90;99.90
24468;DHT22;12634;50.852;5.676;2023-05-07T12:53:19;20.50;99.90
24468;DHT22;12634;50.852;5.676;2023-05-07T12:55:48;20.60;99.90
24468;DHT22;12634;50.852;5.676;2023-05-07T12:58:19;20.90;99.90
24468;DHT22;12634;50.852;5.676;2023-05-07T13:00:48;20.60;99.90
24468;DHT22;12634;50.852;5.676;2023-05-07T13:03:21;20.60;99.90
24468;DHT22;12634;50.852;5.676;2023-05-07T13:05:50;20.40;99.90
24468;DHT22;12634;50.852;5.676;2023-05-07T13:08:31;20.80;99.90
24468;DHT22;12634;50.852;5.676;2023-05-07T13:10:59;21.20;99.90
24468;DHT22;12634;50.852;5.676;2023-05-07T13:13:30;21.10;99.90
24468;DHT22;12634;50.852;5.676;2023-05-07T13:15:58;21.20;99.90
24468;DHT22;12634;50.852;5.676;2023-05-07T13:18:26;20.90;99.90
24468;DHT22;12634;50.852;5.676;2023-05-07T13:20:53;21.20;99.90
24468;DHT22;12634;50.852;5.676;2023-05-07T13:23:20;21.30;99.90
24468;DHT22;12634;50.852;5.676;2023-05-07T13:25:48;21.30;99.90
24468;DHT22;12634;50.852;5.676;2023-05-07T13:28:16;21.10;99.90
24468;DHT22;12634;50.852;5.676;2023-05-07T13:30:44;21.00;99.90
24468;DHT22;12634;50.852;5.676;2023-05-07T13:33:12;20.90;99.90
24468;DHT22;12634;50.852;5.676;2023-05-07T13:35:39;20.80;99.90
24468;DHT22;12634;50.852;5.676;2023-05-07T13:38:06;20.70;99.90
24468;DHT22;12634;50.852;5.676;2023-05-07T13:40:33;20.50;99.90
24468;DHT22;12634;50.852;5.676;2023-05-07T13:43:01;20.30;99.90
24468;DHT22;12634;50.852;5.676;2023-05-07T13:45:28;20.40;99.90
24468;DHT22;12634;50.852;5.676;2023-05-07T13:47:57;20.70;99.90
24468;DHT22;12634;50.852;5.676;2023-05-07T13:50:25;21.00;99.90
24468;DHT22;12634;50.852;5.676;2023-05-07T13:52:55;21.20;99.90
24468;DHT22;12634;50.852;5.676;2023-05-07T13:55:24;21.40;99.90
24468;DHT22;12634;50.852;5.676;2023-05-07T13:57:55;21.60;99.90
24468;DHT22;12634;50.852;5.676;2023-05-07T14:00:23;20.90;99.90
24468;DHT22;12634;50.852;5.676;2023-05-07T14:02:50;20.80;99.90
24468;DHT22;12634;50.852;5.676;2023-05-07T14:05:19;20.70;99.90
24468;DHT22;12634;50.852;5.676;2023-05-07T14:07:46;20.80;99.90
24468;DHT22;12634;50.852;5.676;2023-05-07T14:10:14;21.10;99.90
24468;DHT22;12634;50.852;5.676;2023-05-07T14:12:41;21.50;99.90
24468;DHT22;12634;50.852;5.676;2023-05-07T14:15:09;21.50;99.90
24468;DHT22;12634;50.852;5.676;2023-05-07T14:17:36;21.20;99.90
24468;DHT22;12634;50.852;5.676;2023-05-07T14:20:04;21.10;99.90
24468;DHT22;12634;50.852;5.676;2023-05-07T14:22:34;21.20;99.90
24468;DHT22;12634;50.852;5.676;2023-05-07T14:25:01;20.90;99.90
24468;DHT22;12634;50.852;5.676;2023-05-07T14:27:28;21.20;99.90
24468;DHT22;12634;50.852;5.676;2023-05-07T14:29:55;20.90;99.90
24468;DHT22;12634;50.852;5.676;2023-05-07T14:32:22;21.00;99.90
24468;DHT22;12634;50.852;5.676;2023-05-07T14:34:50;21.20;99.90
24468;DHT22;12634;50.852;5.676;2023-05-07T14:37:17;21.30;99.90
24468;DHT22;12634;50.852;5.676;2023-05-07T14:39:47;21.50;99.90
24468;DHT22;12634;50.852;5.676;2023-05-07T14:42:14;21.40;99.90
24468;DHT22;12634;50.852;5.676;2023-05-07T14:44:41;21.50;99.90
24468;DHT22;12634;50.852;5.676;2023-05-07T14:47:08;21.40;99.90
24468;DHT22;12634;50.852;5.676;2023-05-07T14:49:35;21.30;99.90
24468;DHT22;12634;50.852;5.676;2023-05-07T14:52:03;21.10;99.90
24468;DHT22;12634;50.852;5.676;2023-05-07T14:54:33;20.70;99.90
24468;DHT22;12634;50.852;5.676;2023-05-07T14:57:02;20.50;99.90
24468;DHT22;12634;50.852;5.676;2023-05-07T14:59:30;20.60;99.90
24468;DHT22;12634;50.852;5.676;2023-05-07T15:01:57;20.60;99.90
24468;DHT22;12634;50.852;5.676;2023-05-07T15:04:24;20.60;99.90
24468;DHT22;12634;50.852;5.676;2023-05-07T15:06:51;20.50;99.90
24468;DHT22;12634;50.852;5.676;2023-05-07T15:09:19;20.40;99.90
24468;DHT22;12634;50.852;5.676;2023-05-07T15:11:46;20.50;99.90
24468;DHT22;12634;50.852;5.676;2023-05-07T15:14:15;20.30;99.90
24468;DHT22;12634;50.852;5.676;2023-05-07T15:16:42;20.50;99.90
24468;DHT22;12634;50.852;5.676;2023-05-07T15:19:09;20.60;99.90
24468;DHT22;12634;50.852;5.676;2023-05-07T15:21:36;20.60;99.90
24468;DHT22;12634;50.852;5.676;2023-05-07T15:24:04;20.60;99.90
24468;DHT22;12634;50.852;5.676;2023-05-07T15:26:31;20.60;99.90
24468;DHT22;12634;50.852;5.676;2023-05-07T15:28:58;20.60;99.90
24468;DHT22;12634;50.852;5.676;2023-05-07T15:31:26;20.50;99.90
24468;DHT22;12634;50.852;5.676;2023-05-07T15:33:54;20.80;99.90
24468;DHT22;12634;50.852;5.676;2023-05-07T15:36:22;20.50;99.90
24468;DHT22;12634;50.852;5.676;2023-05-07T15:38:49;20.60;99.90
24468;DHT22;12634;50.852;5.676;2023-05-07T15:41:16;21.00;99.90